sensor_id;sensor_type;location;lat;lon;timestamp;pressure;altitude;pressure_sealevel;temperature;humidity
66887;BME280;53798;51.680;5.976;2022-12-05T00:01:32;101676.72;;;2.30;89.70
66887;BME280;53798;51.680;5.976;2022-12-05T00:04:06;101674.94;;;2.27;89.79
66887;BME280;53798;51.680;5.976;2022-12-05T00:06:36;101673.25;;;2.29;89.76
66887;BME280;53798;51.680;5.976;2022-12-05T00:09:06;101669.75;;;2.27;89.75
66887;BME280;53798;51.680;5.976;2022-12-05T00:11:37;101668.84;;;2.25;89.96
66887;BME280;53798;51.680;5.976;2022-12-05T00:14:09;101665.34;;;2.23;90.14
66887;BME280;53798;51.680;5.976;2022-12-05T00:16:40;101668.06;;;2.29;90.04
66887;BME280;53798;51.680;5.976;2022-12-05T00:19:11;101667.22;;;2.30;89.98
66887;BME280;53798;51.680;5.976;2022-12-05T00:21:41;101663.69;;;2.28;89.95
66887;BME280;53798;51.680;5.976;2022-12-05T00:24:13;101663.69;;;2.28;90.21
66887;BME280;53798;51.680;5.976;2022-12-05T00:26:42;101652.53;;;2.36;89.96
66887;BME280;53798;51.680;5.976;2022-12-05T00:29:09;101652.53;;;2.34;89.80
66887;BME280;53798;51.680;5.976;2022-12-05T00:31:36;101650.81;;;2.36;89.67
66887;BME280;53798;51.680;5.976;2022-12-05T00:34:04;101654.25;;;2.33;89.88
66887;BME280;53798;51.680;5.976;2022-12-05T00:36:33;101652.56;;;2.37;89.61
66887;BME280;53798;51.680;5.976;2022-12-05T00:39:06;101650.78;;;2.35;89.63
66887;BME280;53798;51.680;5.976;2022-12-05T00:41:35;101649.94;;;2.36;89.86
66887;BME280;53798;51.680;5.976;2022-12-05T00:44:07;101645.63;;;2.36;90.11
66887;BME280;53798;51.680;5.976;2022-12-05T00:46:36;101643.84;;;2.33;90.15
66887;BME280;53798;51.680;5.976;2022-12-05T00:49:05;101647.38;;;2.37;90.15
66887;BME280;53798;51.680;5.976;2022-12-05T00:51:36;101649.19;;;2.43;89.94
66887;BME280;53798;51.680;5.976;2022-12-05T00:54:12;101648.38;;;2.47;89.66
66887;BME280;53798;51.680;5.976;2022-12-05T00:56:42;101644.84;;;2.42;89.67
66887;BME280;53798;51.680;5.976;2022-12-05T00:59:16;101650.84;;;2.39;89.84
66887;BME280;53798;51.680;5.976;2022-12-05T01:01:46;101651.81;;;2.43;89.64
66887;BME280;53798;51.680;5.976;2022-12-05T01:04:18;101650.00;;;2.40;89.78
66887;BME280;53798;51.680;5.976;2022-12-05T01:06:47;101646.53;;;2.38;90.01
66887;BME280;53798;51.680;5.976;2022-12-05T01:09:18;101654.34;;;2.41;89.95
66887;BME280;53798;51.680;5.976;2022-12-05T01:11:46;101662.22;;;2.43;89.90
66887;BME280;53798;51.680;5.976;2022-12-05T01:14:16;101658.75;;;2.44;89.80
66887;BME280;53798;51.680;5.976;2022-12-05T01:16:46;101660.47;;;2.43;89.90
66887;BME280;53798;51.680;5.976;2022-12-05T01:19:28;101663.13;;;2.46;89.77
66887;BME280;53798;51.680;5.976;2022-12-05T01:21:58;101665.75;;;2.46;89.80
66887;BME280;53798;51.680;5.976;2022-12-05T01:24:27;101664.03;;;2.48;89.68
66887;BME280;53798;51.680;5.976;2022-12-05T01:26:56;101670.09;;;2.47;89.52
66887;BME280;53798;51.680;5.976;2022-12-05T01:29:24;101669.25;;;2.50;89.55
66887;BME280;53798;51.680;5.976;2022-12-05T01:31:52;101670.19;;;2.54;89.28
66887;BME280;53798;51.680;5.976;2022-12-05T01:34:20;101666.59;;;2.45;89.63
66887;BME280;53798;51.680;5.976;2022-12-05T01:36:48;101664.00;;;2.47;89.83
66887;BME280;53798;51.680;5.976;2022-12-05T01:39:15;101670.06;;;2.46;89.81
66887;BME280;53798;51.680;5.976;2022-12-05T01:41:49;101678.78;;;2.49;89.78
66887;BME280;53798;51.680;5.976;2022-12-05T01:46:45;101673.56;;;2.48;89.82
66887;BME280;53798;51.680;5.976;2022-12-05T01:51:48;101683.13;;;2.47;89.89
66887;BME280;53798;51.680;5.976;2022-12-05T01:54:20;101685.72;;;2.49;90.01
66887;BME280;53798;51.680;5.976;2022-12-05T01:56:52;101681.38;;;2.48;89.93
66887;BME280;53798;51.680;5.976;2022-12-05T01:59:26;101683.13;;;2.47;90.42
66887;BME280;53798;51.680;5.976;2022-12-05T02:01:58;101689.09;;;2.42;90.55
66887;BME280;53798;51.680;5.976;2022-12-05T02:04:26;101685.63;;;2.43;90.60
66887;BME280;53798;51.680;5.976;2022-12-05T02:06:54;101683.03;;;2.43;91.05
66887;BME280;53798;51.680;5.976;2022-12-05T02:09:22;101683.00;;;2.41;90.89
66887;BME280;53798;51.680;5.976;2022-12-05T02:11:56;101687.47;;;2.48;90.79
66887;BME280;53798;51.680;5.976;2022-12-05T02:15:06;101690.88;;;2.46;90.76
66887;BME280;53798;51.680;5.976;2022-12-05T02:19:03;101695.16;;;2.42;91.13
66887;BME280;53798;51.680;5.976;2022-12-05T02:30:40;101688.84;;;2.28;92.31
66887;BME280;53798;51.680;5.976;2022-12-05T02:33:25;101689.66;;;2.25;92.53
66887;BME280;53798;51.680;5.976;2022-12-05T02:36:22;101680.91;;;2.22;93.01
66887;BME280;53798;51.680;5.976;2022-12-05T02:39:02;101683.56;;;2.23;93.07
66887;BME280;53798;51.680;5.976;2022-12-05T02:44:46;101690.41;;;2.18;93.65
66887;BME280;53798;51.680;5.976;2022-12-05T02:47:24;101694.75;;;2.17;93.92
66887;BME280;53798;51.680;5.976;2022-12-05T02:49:57;101700.78;;;2.16;94.04
66887;BME280;53798;51.680;5.976;2022-12-05T02:52:26;101693.00;;;2.18;94.23
66887;BME280;53798;51.680;5.976;2022-12-05T02:54:56;101694.75;;;2.17;94.26
66887;BME280;53798;51.680;5.976;2022-12-05T02:57:24;101693.00;;;2.18;94.44
66887;BME280;53798;51.680;5.976;2022-12-05T02:59:51;101706.00;;;2.18;94.40
66887;BME280;53798;51.680;5.976;2022-12-05T03:02:27;101699.97;;;2.19;94.47
66887;BME280;53798;51.680;5.976;2022-12-05T03:05:50;101699.97;;;2.21;94.59
66887;BME280;53798;51.680;5.976;2022-12-05T03:07:59;101690.41;;;2.20;94.53
66887;BME280;53798;51.680;5.976;2022-12-05T03:10:32;101694.91;;;2.27;94.52
66887;BME280;53798;51.680;5.976;2022-12-05T03:13:12;101693.09;;;2.23;94.62
66887;BME280;53798;51.680;5.976;2022-12-05T03:15:47;101696.59;;;2.23;94.73
66887;BME280;53798;51.680;5.976;2022-12-05T03:18:44;101696.53;;;2.22;94.73
66887;BME280;53798;51.680;5.976;2022-12-05T03:23:50;101687.03;;;2.24;94.90
66887;BME280;53798;51.680;5.976;2022-12-05T03:26:31;101688.72;;;2.22;94.84
66887;BME280;53798;51.680;5.976;2022-12-05T03:29:32;101685.25;;;2.21;95.10
66887;BME280;53798;51.680;5.976;2022-12-05T03:32:22;101684.41;;;2.22;94.98
66887;BME280;53798;51.680;5.976;2022-12-05T03:35:03;101687.97;;;2.27;95.10
66887;BME280;53798;51.680;5.976;2022-12-05T03:37:48;101689.63;;;2.24;95.00
66887;BME280;53798;51.680;5.976;2022-12-05T03:40:26;101691.41;;;2.26;95.15
66887;BME280;53798;51.680;5.976;2022-12-05T03:43:48;101682.69;;;2.23;95.28
66887;BME280;53798;51.680;5.976;2022-12-05T03:46:04;101684.41;;;2.22;95.47
66887;BME280;53798;51.680;5.976;2022-12-05T03:52:16;101687.06;;;2.25;95.51
66887;BME280;53798;51.680;5.976;2022-12-05T03:54:31;101688.84;;;2.28;95.55
66887;BME280;53798;51.680;5.976;2022-12-05T03:57:15;101682.75;;;2.27;95.81
66887;BME280;53798;51.680;5.976;2022-12-05T04:00:04;101698.44;;;2.30;95.81
66887;BME280;53798;51.680;5.976;2022-12-05T04:02:46;101688.09;;;2.33;95.70
66887;BME280;53798;51.680;5.976;2022-12-05T04:05:20;101691.56;;;2.36;95.68
66887;BME280;53798;51.680;5.976;2022-12-05T04:08:00;101693.38;;;2.40;95.45
66887;BME280;53798;51.680;5.976;2022-12-05T04:10:36;101691.56;;;2.36;95.81
66887;BME280;53798;51.680;5.976;2022-12-05T04:13:22;101692.41;;;2.33;95.62
66887;BME280;53798;51.680;5.976;2022-12-05T04:16:00;101697.63;;;2.35;95.72
66887;BME280;53798;51.680;5.976;2022-12-05T04:19:02;101695.84;;;2.32;95.83
66887;BME280;53798;51.680;5.976;2022-12-05T04:21:41;101704.59;;;2.36;95.95
66887;BME280;53798;51.680;5.976;2022-12-05T04:24:19;101700.22;;;2.35;95.77
66887;BME280;53798;51.680;5.976;2022-12-05T04:38:26;101708.09;;;2.39;96.01
66887;BME280;53798;51.680;5.976;2022-12-05T04:41:04;101709.03;;;2.41;95.96
66887;BME280;53798;51.680;5.976;2022-12-05T04:43:38;101704.66;;;2.40;96.04
66887;BME280;53798;51.680;5.976;2022-12-05T04:46:10;101703.88;;;2.44;95.82
66887;BME280;53798;51.680;5.976;2022-12-05T04:48:45;101707.31;;;2.43;95.93
66887;BME280;53798;51.680;5.976;2022-12-05T04:51:22;101711.69;;;2.44;96.05
66887;BME280;53798;51.680;5.976;2022-12-05T04:53:59;101713.44;;;2.45;96.17
66887;BME280;53798;51.680;5.976;2022-12-05T04:56:32;101707.47;;;2.51;96.33
66887;BME280;53798;51.680;5.976;2022-12-05T04:59:04;101710.09;;;2.53;95.92
66887;BME280;53798;51.680;5.976;2022-12-05T05:01:37;101707.53;;;2.56;95.95
66887;BME280;53798;51.680;5.976;2022-12-05T05:04:15;101705.84;;;2.59;95.58
66887;BME280;53798;51.680;5.976;2022-12-05T05:06:48;101707.63;;;2.60;95.49
66887;BME280;53798;51.680;5.976;2022-12-05T05:09:15;101715.41;;;2.59;95.21
66887;BME280;53798;51.680;5.976;2022-12-05T05:11:43;101705.00;;;2.60;95.41
66887;BME280;53798;51.680;5.976;2022-12-05T05:14:10;101710.22;;;2.60;95.56
66887;BME280;53798;51.680;5.976;2022-12-05T05:16:39;101716.28;;;2.59;95.50
66887;BME280;53798;51.680;5.976;2022-12-05T05:19:07;101716.34;;;2.64;95.44
66887;BME280;53798;51.680;5.976;2022-12-05T05:21:40;101715.47;;;2.63;95.60
66887;BME280;53798;51.680;5.976;2022-12-05T05:24:09;101717.34;;;2.71;95.27
66887;BME280;53798;51.680;5.976;2022-12-05T05:26:39;101710.38;;;2.71;94.87
66887;BME280;53798;51.680;5.976;2022-12-05T05:29:08;101717.28;;;2.68;94.91
66887;BME280;53798;51.680;5.976;2022-12-05T05:31:37;101718.13;;;2.67;95.10
66887;BME280;53798;51.680;5.976;2022-12-05T05:34:05;101715.50;;;2.67;95.32
66887;BME280;53798;51.680;5.976;2022-12-05T05:36:37;101715.50;;;2.67;95.68
66887;BME280;53798;51.680;5.976;2022-12-05T05:39:05;101718.19;;;2.70;95.37
66887;BME280;53798;51.680;5.976;2022-12-05T05:41:37;101719.09;;;2.72;95.40
66887;BME280;53798;51.680;5.976;2022-12-05T05:44:04;101718.25;;;2.73;95.31
66887;BME280;53798;51.680;5.976;2022-12-05T05:46:32;101722.59;;;2.74;95.25
66887;BME280;53798;51.680;5.976;2022-12-05T05:49:00;101724.38;;;2.78;94.99
66887;BME280;53798;51.680;5.976;2022-12-05T05:51:27;101720.00;;;2.75;95.11
66887;BME280;53798;51.680;5.976;2022-12-05T05:53:56;101715.72;;;2.77;95.07
66887;BME280;53798;51.680;5.976;2022-12-05T05:56:30;101721.00;;;2.84;95.29
66887;BME280;53798;51.680;5.976;2022-12-05T05:58:59;101726.56;;;3.07;96.52
66887;BME280;53798;51.680;5.976;2022-12-05T06:01:28;101713.03;;;3.33;97.43
66887;BME280;53798;51.680;5.976;2022-12-05T06:03:55;101723.69;;;3.50;97.29
66887;BME280;53798;51.680;5.976;2022-12-05T06:06:26;101715.94;;;3.57;96.15
66887;BME280;53798;51.680;5.976;2022-12-05T06:08:53;101721.16;;;3.56;95.29
66887;BME280;53798;51.680;5.976;2022-12-05T06:11:25;101722.84;;;3.52;94.85
66887;BME280;53798;51.680;5.976;2022-12-05T06:13:54;101722.81;;;3.49;94.45
66887;BME280;53798;51.680;5.976;2022-12-05T06:16:22;101729.66;;;3.41;94.04
66887;BME280;53798;51.680;5.976;2022-12-05T06:18:50;101726.94;;;3.32;93.60
66887;BME280;53798;51.680;5.976;2022-12-05T06:21:18;101725.06;;;3.23;93.53
66887;BME280;53798;51.680;5.976;2022-12-05T06:23:46;101729.28;;;3.15;93.75
66887;BME280;53798;51.680;5.976;2022-12-05T06:26:19;101730.00;;;3.04;93.89
66887;BME280;53798;51.680;5.976;2022-12-05T06:28:47;101725.56;;;2.99;94.01
66887;BME280;53798;51.680;5.976;2022-12-05T06:31:16;101740.28;;;2.97;94.31
66887;BME280;53798;51.680;5.976;2022-12-05T06:33:45;101735.91;;;2.94;94.45
66887;BME280;53798;51.680;5.976;2022-12-05T06:36:16;101736.75;;;2.91;94.79
66887;BME280;53798;51.680;5.976;2022-12-05T06:38:45;101737.66;;;2.93;94.79
66887;BME280;53798;51.680;5.976;2022-12-05T06:41:17;101735.06;;;2.95;94.71
66887;BME280;53798;51.680;5.976;2022-12-05T06:43:45;101742.88;;;2.95;94.41
66887;BME280;53798;51.680;5.976;2022-12-05T06:46:13;101738.47;;;2.91;94.62
66887;BME280;53798;51.680;5.976;2022-12-05T06:48:41;101736.69;;;2.88;94.79
66887;BME280;53798;51.680;5.976;2022-12-05T06:51:10;101733.19;;;2.85;94.99
66887;BME280;53798;51.680;5.976;2022-12-05T06:53:38;101734.09;;;2.87;95.10
66887;BME280;53798;51.680;5.976;2022-12-05T06:56:06;101739.25;;;2.85;95.18
66887;BME280;53798;51.680;5.976;2022-12-05T06:58:43;101736.69;;;2.87;95.28
66887;BME280;53798;51.680;5.976;2022-12-05T07:01:13;101739.25;;;2.85;95.24
66887;BME280;53798;51.680;5.976;2022-12-05T07:04:01;101742.72;;;2.84;95.34
66887;BME280;53798;51.680;5.976;2022-12-05T07:06:28;101740.13;;;2.86;95.42
66887;BME280;53798;51.680;5.976;2022-12-05T07:08:55;101744.50;;;2.88;95.12
66887;BME280;53798;51.680;5.976;2022-12-05T07:11:22;101745.41;;;2.89;95.30
66887;BME280;53798;51.680;5.976;2022-12-05T07:13:48;101747.16;;;2.90;95.32
66887;BME280;53798;51.680;5.976;2022-12-05T07:16:15;101748.88;;;2.89;95.27
66887;BME280;53798;51.680;5.976;2022-12-05T07:18:42;101760.19;;;2.91;95.38
66887;BME280;53798;51.680;5.976;2022-12-05T07:21:12;101756.75;;;2.92;95.46
66887;BME280;53798;51.680;5.976;2022-12-05T07:23:42;101761.09;;;2.93;95.46
66887;BME280;53798;51.680;5.976;2022-12-05T07:26:16;101762.88;;;2.96;95.54
66887;BME280;53798;51.680;5.976;2022-12-05T07:28:46;101766.41;;;3.00;95.39
66887;BME280;53798;51.680;5.976;2022-12-05T07:31:19;101765.56;;;3.02;95.23
66887;BME280;53798;51.680;5.976;2022-12-05T07:33:48;101765.53;;;2.99;95.15
66887;BME280;53798;51.680;5.976;2022-12-05T07:36:18;101770.78;;;3.02;95.22
66887;BME280;53798;51.680;5.976;2022-12-05T07:38:54;101775.19;;;3.06;94.92
66887;BME280;53798;51.680;5.976;2022-12-05T07:41:27;101776.84;;;3.01;94.78
66887;BME280;53798;51.680;5.976;2022-12-05T07:43:57;101774.28;;;3.03;94.76
66887;BME280;53798;51.680;5.976;2022-12-05T07:46:26;101777.66;;;2.97;94.80
66887;BME280;53798;51.680;5.976;2022-12-05T07:48:54;101778.50;;;2.94;95.17
66887;BME280;53798;51.680;5.976;2022-12-05T07:51:21;101779.34;;;2.95;95.15
66887;BME280;53798;51.680;5.976;2022-12-05T07:53:49;101781.97;;;2.95;95.42
66887;BME280;53798;51.680;5.976;2022-12-05T07:56:17;101782.81;;;2.95;95.42
66887;BME280;53798;51.680;5.976;2022-12-05T07:58:46;101784.56;;;2.95;95.52
66887;BME280;53798;51.680;5.976;2022-12-05T08:01:16;101786.31;;;2.94;95.62
66887;BME280;53798;51.680;5.976;2022-12-05T08:03:44;101795.91;;;2.97;95.63
66887;BME280;53798;51.680;5.976;2022-12-05T08:06:14;101797.59;;;2.97;95.70
66887;BME280;53798;51.680;5.976;2022-12-05T08:08:43;101797.59;;;2.97;95.63
66887;BME280;53798;51.680;5.976;2022-12-05T08:11:13;101799.34;;;2.94;95.65
66887;BME280;53798;51.680;5.976;2022-12-05T08:13:41;101799.28;;;2.93;95.87
66887;BME280;53798;51.680;5.976;2022-12-05T08:16:11;101810.63;;;2.95;96.02
66887;BME280;53798;51.680;5.976;2022-12-05T08:18:40;101803.66;;;2.95;95.99
66887;BME280;53798;51.680;5.976;2022-12-05T08:21:11;101808.00;;;2.95;95.94
66887;BME280;53798;51.680;5.976;2022-12-05T08:23:40;101814.13;;;2.97;96.15
66887;BME280;53798;51.680;5.976;2022-12-05T08:26:19;101813.22;;;2.95;96.11
66887;BME280;53798;51.680;5.976;2022-12-05T08:28:52;101826.25;;;2.95;96.28
66887;BME280;53798;51.680;5.976;2022-12-05T08:31:26;101814.13;;;2.97;96.46
66887;BME280;53798;51.680;5.976;2022-12-05T08:33:56;101820.25;;;2.99;96.44
66887;BME280;53798;51.680;5.976;2022-12-05T08:36:26;101821.97;;;3.00;96.52
66887;BME280;53798;51.680;5.976;2022-12-05T08:38:58;101826.31;;;3.00;96.64
66887;BME280;53798;51.680;5.976;2022-12-05T08:41:27;101828.91;;;2.98;96.48
66887;BME280;53798;51.680;5.976;2022-12-05T08:44:00;101831.47;;;2.97;96.44
66887;BME280;53798;51.680;5.976;2022-12-05T08:46:30;101834.91;;;2.94;96.16
66887;BME280;53798;51.680;5.976;2022-12-05T08:48:59;101832.22;;;2.89;96.04
66887;BME280;53798;51.680;5.976;2022-12-05T08:51:26;101835.69;;;2.88;96.20
66887;BME280;53798;51.680;5.976;2022-12-05T08:53:53;101831.31;;;2.87;96.20
66887;BME280;53798;51.680;5.976;2022-12-05T08:56:22;101847.78;;;2.85;96.18
66887;BME280;53798;51.680;5.976;2022-12-05T08:58:53;101842.56;;;2.83;96.32
66887;BME280;53798;51.680;5.976;2022-12-05T09:01:28;101846.88;;;2.83;96.47
66887;BME280;53798;51.680;5.976;2022-12-05T09:03:58;101851.22;;;2.84;96.38
66887;BME280;53798;51.680;5.976;2022-12-05T09:06:27;101846.00;;;2.82;96.45
66887;BME280;53798;51.680;5.976;2022-12-05T09:09:00;101854.75;;;2.86;96.48
66887;BME280;53798;51.680;5.976;2022-12-05T09:11:33;101852.13;;;2.84;96.38
66887;BME280;53798;51.680;5.976;2022-12-05T09:14:04;101856.38;;;2.80;96.01
66887;BME280;53798;51.680;5.976;2022-12-05T09:16:33;101858.09;;;2.78;96.03
66887;BME280;53798;51.680;5.976;2022-12-05T09:19:15;101860.63;;;2.75;96.24
66887;BME280;53798;51.680;5.976;2022-12-05T09:21:44;101863.25;;;2.75;96.46
66887;BME280;53798;51.680;5.976;2022-12-05T09:24:11;101864.06;;;2.73;96.33
66887;BME280;53798;51.680;5.976;2022-12-05T09:26:40;101864.03;;;2.71;96.43
66887;BME280;53798;51.680;5.976;2022-12-05T09:29:10;101869.22;;;2.71;96.48
66887;BME280;53798;51.680;5.976;2022-12-05T09:31:43;101875.28;;;2.70;96.60
66887;BME280;53798;51.680;5.976;2022-12-05T09:34:12;101877.88;;;2.70;96.56
66887;BME280;53798;51.680;5.976;2022-12-05T09:36:40;101878.75;;;2.69;96.65
66887;BME280;53798;51.680;5.976;2022-12-05T09:39:08;101877.00;;;2.68;96.67
66887;BME280;53798;51.680;5.976;2022-12-05T09:44:57;101877.09;;;2.73;96.92
66887;BME280;53798;51.680;5.976;2022-12-05T09:49:59;101886.69;;;2.75;97.09
66887;BME280;53798;51.680;5.976;2022-12-05T09:52:40;101878.88;;;2.75;97.26
66887;BME280;53798;51.680;5.976;2022-12-05T09:55:19;101878.09;;;2.79;97.17
66887;BME280;53798;51.680;5.976;2022-12-05T09:57:57;101881.56;;;2.82;97.15
66887;BME280;53798;51.680;5.976;2022-12-05T10:00:29;101882.41;;;2.80;97.23
66887;BME280;53798;51.680;5.976;2022-12-05T10:03:18;101884.16;;;2.80;97.08
66887;BME280;53798;51.680;5.976;2022-12-05T10:10:13;101883.31;;;2.81;97.28
66887;BME280;53798;51.680;5.976;2022-12-05T10:13:12;101882.41;;;2.80;97.27
66887;BME280;53798;51.680;5.976;2022-12-05T10:15:54;101879.78;;;2.77;97.18
66887;BME280;53798;51.680;5.976;2022-12-05T10:18:42;101884.91;;;2.73;96.80
66887;BME280;53798;51.680;5.976;2022-12-05T10:21:21;101890.13;;;2.74;97.00
66887;BME280;53798;51.680;5.976;2022-12-05T10:23:59;101885.75;;;2.72;96.77
66887;BME280;53798;51.680;5.976;2022-12-05T10:26:42;101889.19;;;2.69;96.54
66887;BME280;53798;51.680;5.976;2022-12-05T10:29:20;101883.91;;;2.66;96.57
66887;BME280;53798;51.680;5.976;2022-12-05T10:34:46;101883.91;;;2.66;96.73
66887;BME280;53798;51.680;5.976;2022-12-05T10:37:20;101883.97;;;2.69;96.91
66887;BME280;53798;51.680;5.976;2022-12-05T10:39:49;101886.59;;;2.71;96.89
66887;BME280;53798;51.680;5.976;2022-12-05T10:42:35;101890.03;;;2.68;96.60
66887;BME280;53798;51.680;5.976;2022-12-05T10:45:05;101889.09;;;2.64;96.54
66887;BME280;53798;51.680;5.976;2022-12-05T10:47:38;101891.69;;;2.64;96.61
66887;BME280;53798;51.680;5.976;2022-12-05T10:50:28;101885.56;;;2.62;96.63
66887;BME280;53798;51.680;5.976;2022-12-05T10:52:59;101883.88;;;2.64;96.71
66887;BME280;53798;51.680;5.976;2022-12-05T10:55:49;101883.06;;;2.67;96.94
66887;BME280;53798;51.680;5.976;2022-12-05T10:58:36;101875.25;;;2.67;96.97
66887;BME280;53798;51.680;5.976;2022-12-05T11:01:08;101883.97;;;2.69;96.93
66887;BME280;53798;51.680;5.976;2022-12-05T11:03:41;101875.28;;;2.70;97.14
66887;BME280;53798;51.680;5.976;2022-12-05T11:06:27;101866.66;;;2.73;97.11
66887;BME280;53798;51.680;5.976;2022-12-05T11:09:13;101859.72;;;2.73;97.21
66887;BME280;53798;51.680;5.976;2022-12-05T11:14:56;101855.44;;;2.75;97.44
66887;BME280;53798;51.680;5.976;2022-12-05T11:17:35;101858.03;;;2.75;97.46
66887;BME280;53798;51.680;5.976;2022-12-05T11:22:51;101850.19;;;2.74;97.33
66887;BME280;53798;51.680;5.976;2022-12-05T11:27:49;101863.16;;;2.72;97.58
66887;BME280;53798;51.680;5.976;2022-12-05T11:30:19;101862.31;;;2.73;97.67
66887;BME280;53798;51.680;5.976;2022-12-05T11:33:17;101868.44;;;2.75;97.79
66887;BME280;53798;51.680;5.976;2022-12-05T11:35:48;101863.22;;;2.74;97.68
66887;BME280;53798;51.680;5.976;2022-12-05T11:38:21;101861.50;;;2.76;97.76
66887;BME280;53798;51.680;5.976;2022-12-05T11:44:32;101865.94;;;2.80;97.97
66887;BME280;53798;51.680;5.976;2022-12-05T11:50:59;101861.53;;;2.77;98.03
66887;BME280;53798;51.680;5.976;2022-12-05T11:56:51;101856.34;;;2.79;98.33
66887;BME280;53798;51.680;5.976;2022-12-05T11:59:56;101853.75;;;2.79;98.30
66887;BME280;53798;51.680;5.976;2022-12-05T12:02:45;101854.66;;;2.79;98.55
66887;BME280;53798;51.680;5.976;2022-12-05T12:05:57;101851.22;;;2.84;98.32
66887;BME280;53798;51.680;5.976;2022-12-05T12:08:47;101850.38;;;2.85;98.47
66887;BME280;53798;51.680;5.976;2022-12-05T12:14:36;101851.34;;;2.90;98.54
66887;BME280;53798;51.680;5.976;2022-12-05T12:20:15;101853.16;;;2.94;98.54
66887;BME280;53798;51.680;5.976;2022-12-05T12:23:22;101857.56;;;2.98;98.56
66887;BME280;53798;51.680;5.976;2022-12-05T12:28:58;101850.56;;;2.95;98.04
66887;BME280;53798;51.680;5.976;2022-12-05T12:37:42;101848.03;;;3.00;98.08
66887;BME280;53798;51.680;5.976;2022-12-05T12:40:49;101849.78;;;3.01;97.75
66887;BME280;53798;51.680;5.976;2022-12-05T12:43:43;101851.47;;;2.98;97.28
66887;BME280;53798;51.680;5.976;2022-12-05T12:46:40;101840.19;;;2.97;96.77
66887;BME280;53798;51.680;5.976;2022-12-05T12:49:40;101844.50;;;2.97;96.67
66887;BME280;53798;51.680;5.976;2022-12-05T12:52:21;101842.81;;;2.99;96.54
66887;BME280;53798;51.680;5.976;2022-12-05T12:54:56;101836.69;;;2.97;96.20
66887;BME280;53798;51.680;5.976;2022-12-05T12:58:05;101831.47;;;2.95;96.25
66887;BME280;53798;51.680;5.976;2022-12-05T13:01:01;101834.91;;;2.94;95.92
66887;BME280;53798;51.680;5.976;2022-12-05T13:04:06;101825.34;;;2.93;95.97
66887;BME280;53798;51.680;5.976;2022-12-05T13:06:52;101829.75;;;2.97;96.29
66887;BME280;53798;51.680;5.976;2022-12-05T13:09:41;101830.75;;;3.04;96.51
66887;BME280;53798;51.680;5.976;2022-12-05T13:12:23;101833.38;;;3.07;96.59
66887;BME280;53798;51.680;5.976;2022-12-05T13:15:02;101824.75;;;3.09;96.73
66887;BME280;53798;51.680;5.976;2022-12-05T13:17:34;101819.66;;;3.17;96.87
66887;BME280;53798;51.680;5.976;2022-12-05T13:20:14;101816.31;;;3.24;96.88
66887;BME280;53798;51.680;5.976;2022-12-05T13:22:44;101812.09;;;3.33;97.16
66887;BME280;53798;51.680;5.976;2022-12-05T13:25:20;101824.38;;;3.41;97.31
66887;BME280;53798;51.680;5.976;2022-12-05T13:28:01;101824.44;;;3.46;97.47
66887;BME280;53798;51.680;5.976;2022-12-05T13:30:31;101812.28;;;3.47;97.12
66887;BME280;53798;51.680;5.976;2022-12-05T13:33:24;101819.22;;;3.46;97.11
66887;BME280;53798;51.680;5.976;2022-12-05T13:35:56;101820.16;;;3.50;96.86
66887;BME280;53798;51.680;5.976;2022-12-05T13:39:02;101814.91;;;3.47;96.47
66887;BME280;53798;51.680;5.976;2022-12-05T13:41:52;101819.19;;;3.43;96.14
66887;BME280;53798;51.680;5.976;2022-12-05T13:44:44;101822.59;;;3.39;95.82
66887;BME280;53798;51.680;5.976;2022-12-05T13:53:40;101825.16;;;3.36;96.17
66887;BME280;53798;51.680;5.976;2022-12-05T14:04:01;101819.19;;;3.43;97.20
66887;BME280;53798;51.680;5.976;2022-12-05T14:17:45;101823.63;;;3.49;97.72
66887;BME280;53798;51.680;5.976;2022-12-05T14:20:25;101821.03;;;3.49;97.84
66887;BME280;53798;51.680;5.976;2022-12-05T14:28:59;101830.69;;;3.57;98.32
66887;BME280;53798;51.680;5.976;2022-12-05T14:34:32;101830.72;;;3.59;98.55
66887;BME280;53798;51.680;5.976;2022-12-05T14:37:06;101829.03;;;3.63;98.74
66887;BME280;53798;51.680;5.976;2022-12-05T14:39:57;101831.63;;;3.61;98.58
66887;BME280;53798;51.680;5.976;2022-12-05T14:42:50;101836.88;;;3.63;98.96
66887;BME280;53798;51.680;5.976;2022-12-05T14:45:31;101839.47;;;3.63;99.09
66887;BME280;53798;51.680;5.976;2022-12-05T14:48:24;101833.38;;;3.62;98.97
66887;BME280;53798;51.680;5.976;2022-12-05T14:50:56;101839.47;;;3.61;99.19
66887;BME280;53798;51.680;5.976;2022-12-05T14:53:41;101837.72;;;3.62;99.40
66887;BME280;53798;51.680;5.976;2022-12-05T14:56:15;101835.09;;;3.62;99.37
66887;BME280;53798;51.680;5.976;2022-12-05T15:06:54;101840.38;;;3.65;99.64
66887;BME280;53798;51.680;5.976;2022-12-05T15:09:42;101836.88;;;3.64;99.56
66887;BME280;53798;51.680;5.976;2022-12-05T15:12:22;101842.94;;;3.63;99.86
66887;BME280;53798;51.680;5.976;2022-12-05T15:15:18;101836.88;;;3.64;99.66
66887;BME280;53798;51.680;5.976;2022-12-05T15:18:09;101833.41;;;3.64;99.90
66887;BME280;53798;51.680;5.976;2022-12-05T15:21:05;101835.16;;;3.65;99.84
66887;BME280;53798;51.680;5.976;2022-12-05T15:23:38;101848.16;;;3.63;99.85
66887;BME280;53798;51.680;5.976;2022-12-05T15:26:36;101841.25;;;3.65;99.84
66887;BME280;53798;51.680;5.976;2022-12-05T15:32:00;101847.31;;;3.64;99.85
66887;BME280;53798;51.680;5.976;2022-12-05T15:34:56;101856.88;;;3.65;100.00
66887;BME280;53798;51.680;5.976;2022-12-05T15:37:49;101851.66;;;3.65;100.00
66887;BME280;53798;51.680;5.976;2022-12-05T15:40:45;101853.41;;;3.65;100.00
66887;BME280;53798;51.680;5.976;2022-12-05T15:43:30;101858.56;;;3.62;100.00
66887;BME280;53798;51.680;5.976;2022-12-05T15:46:19;101855.97;;;3.62;100.00
66887;BME280;53798;51.680;5.976;2022-12-05T15:48:51;101851.63;;;3.62;100.00
66887;BME280;53798;51.680;5.976;2022-12-05T15:51:41;101853.38;;;3.63;100.00
66887;BME280;53798;51.680;5.976;2022-12-05T15:54:16;101852.53;;;3.64;100.00